Time,TemperatureF,DewpointF,PressureIn,WindDirection,WindDirectionDegrees,WindSpeedMPH,WindSpeedGustMPH,Humidity,HourlyPrecipIn,Conditions,Clouds,dailyrainin,SoftwareType,DateUTC
2013-01-16 00:02:00,10.0,10.0,-100.00,North,-999,-999.0,-999.0,100,-99.99,,,-99.99,,2013-01-16 07:02:00,
2013-01-16 00:11:00,9.0,9.0,-100.00,North,-999,-999.0,-999.0,100,-99.99,,,-99.99,,2013-01-16 07:11:00,
2013-01-16 00:22:00,9.0,9.0,-100.00,North,-999,-999.0,-999.0,100,-99.99,,,-99.99,,2013-01-16 07:22:00,
2013-01-16 00:32:00,9.0,9.0,-100.00,North,-999,-999.0,-999.0,100,-99.99,,,-99.99,,2013-01-16 07:32:00,
2013-01-16 00:42:00,8.0,8.0,-100.00,North,-999,-999.0,-999.0,100,-99.99,,,-99.99,,2013-01-16 07:42:00,
2013-01-16 00:52:00,8.0,8.0,-100.00,North,-999,-999.0,-999.0,100,-99.99,,,-99.99,,2013-01-16 07:52:00,
2013-01-16 01:02:00,7.0,7.0,-100.00,North,-999,-999.0,-999.0,100,-99.99,,,-99.99,,2013-01-16 08:02:00,
2013-01-16 01:12:00,7.0,7.0,-100.00,North,-999,-999.0,-999.0,100,-99.99,,,-99.99,,2013-01-16 08:12:00,
2013-01-16 01:22:00,7.0,7.0,-100.00,North,-999,-999.0,-999.0,100,-99.99,,,-99.99,,2013-01-16 08:22:00,
2013-01-16 01:32:00,7.0,7.0,-100.00,North,-999,-999.0,-999.0,100,-99.99,,,-99.99,,2013-01-16 08:32:00,
2013-01-16 01:42:00,8.0,8.0,-100.00,North,-999,-999.0,-999.0,100,-99.99,,,-99.99,,2013-01-16 08:42:00,
2013-01-16 01:52:00,8.0,8.0,-100.00,North,-999,-999.0,-999.0,100,-99.99,,,-99.99,,2013-01-16 08:52:00,
2013-01-16 02:02:00,9.0,9.0,-100.00,North,-999,-999.0,-999.0,100,-99.99,,,-99.99,,2013-01-16 09:02:00,
2013-01-16 02:11:00,9.0,9.0,-100.00,North,-999,-999.0,-999.0,100,-99.99,,,-99.99,,2013-01-16 09:11:00,
2013-01-16 02:22:00,9.0,9.0,-100.00,North,-999,-999.0,-999.0,100,-99.99,,,-99.99,,2013-01-16 09:22:00,
2013-01-16 02:32:00,9.0,9.0,-100.00,North,-999,-999.0,-999.0,100,-99.99,,,-99.99,,2013-01-16 09:32:00,
2013-01-16 02:42:00,9.0,9.0,-100.00,North,-999,-999.0,-999.0,100,-99.99,,,-99.99,,2013-01-16 09:42:00,
2013-01-16 02:53:00,9.0,9.0,-100.00,North,-999,-999.0,-999.0,100,-99.99,,,-99.99,,2013-01-16 09:53:00,
2013-01-16 03:02:00,8.0,8.0,-100.00,North,-999,-999.0,-999.0,100,-99.99,,,-99.99,,2013-01-16 10:02:00,
2013-01-16 03:12:00,7.0,7.0,-100.00,North,-999,-999.0,-999.0,100,-99.99,,,-99.99,,2013-01-16 10:12:00,
2013-01-16 03:22:00,7.0,7.0,-100.00,North,-999,-999.0,-999.0,100,-99.99,,,-99.99,,2013-01-16 10:22:00,
2013-01-16 03:32:00,7.0,7.0,-100.00,North,-999,-999.0,-999.0,100,-99.99,,,-99.99,,2013-01-16 10:32:00,
2013-01-16 03:42:00,8.0,8.0,-100.00,North,-999,-999.0,-999.0,100,-99.99,,,-99.99,,2013-01-16 10:42:00,
2013-01-16 03:53:00,8.0,8.0,-100.00,North,-999,-999.0,-999.0,100,-99.99,,,-99.99,,2013-01-16 10:53:00,
2013-01-16 04:02:00,9.0,9.0,-100.00,North,-999,-999.0,-999.0,100,-99.99,,,-99.99,,2013-01-16 11:02:00,
2013-01-16 04:11:00,8.0,8.0,-100.00,North,-999,-999.0,-999.0,100,-99.99,,,-99.99,,2013-01-16 11:11:00,
2013-01-16 04:22:00,8.0,8.0,-100.00,North,-999,-999.0,-999.0,100,-99.99,,,-99.99,,2013-01-16 11:22:00,
2013-01-16 04:32:00,8.0,8.0,-100.00,North,-999,-999.0,-999.0,100,-99.99,,,-99.99,,2013-01-16 11:32:00,
2013-01-16 04:42:00,9.0,9.0,-100.00,North,-999,-999.0,-999.0,100,-99.99,,,-99.99,,2013-01-16 11:42:00,
2013-01-16 04:53:00,9.0,9.0,-100.00,North,-999,-999.0,-999.0,100,-99.99,,,-99.99,,2013-01-16 11:53:00,
2013-01-16 05:02:00,8.0,8.0,-100.00,North,-999,-999.0,-999.0,100,-99.99,,,-99.99,,2013-01-16 12:02:00,
2013-01-16 05:12:00,7.0,7.0,-100.00,North,-999,-999.0,-999.0,100,-99.99,,,-99.99,,2013-01-16 12:12:00,
2013-01-16 05:22:00,7.0,7.0,-100.00,North,-999,-999.0,-999.0,100,-99.99,,,-99.99,,2013-01-16 12:22:00,
2013-01-16 05:42:00,15.0,15.0,-100.00,North,-999,-999.0,-999.0,100,-99.99,,,-99.99,,2013-01-16 12:42:00,
2013-01-16 05:53:00,15.0,15.0,-100.00,North,-999,-999.0,-999.0,100,-99.99,,,-99.99,,2013-01-16 12:53:00,
2013-01-16 06:02:00,16.0,16.0,-100.00,North,-999,-999.0,-999.0,100,-99.99,,,-99.99,,2013-01-16 13:02:00,
2013-01-16 06:12:00,18.0,18.0,-100.00,North,-999,-999.0,-999.0,98,-99.99,,,-99.99,,2013-01-16 13:12:00,
2013-01-16 06:22:00,18.0,18.0,-100.00,North,-999,-999.0,-999.0,98,-99.99,,,-99.99,,2013-01-16 13:22:00,
2013-01-16 06:32:00,18.0,18.0,-100.00,North,-999,-999.0,-999.0,98,-99.99,,,-99.99,,2013-01-16 13:32:00,
2013-01-16 06:42:00,18.0,17.0,-100.00,North,-999,-999.0,-999.0,97,-99.99,,,-99.99,,2013-01-16 13:42:00,
2013-01-16 06:53:00,18.0,17.0,-100.00,North,-999,-999.0,-999.0,97,-99.99,,,-99.99,,2013-01-16 13:53:00,
2013-01-16 07:02:00,17.0,16.0,-100.00,North,-999,-999.0,-999.0,95,-99.99,,,-99.99,,2013-01-16 14:02:00,
2013-01-16 07:12:00,19.0,18.0,-100.00,North,-999,-999.0,-999.0,94,-99.99,,,-99.99,,2013-01-16 14:12:00,
2013-01-16 07:22:00,19.0,18.0,-100.00,North,-999,-999.0,-999.0,94,-99.99,,,-99.99,,2013-01-16 14:22:00,
2013-01-16 07:32:00,19.0,18.0,-100.00,North,-999,-999.0,-999.0,94,-99.99,,,-99.99,,2013-01-16 14:32:00,
2013-01-16 07:42:00,16.0,16.0,-100.00,North,-999,-999.0,-999.0,99,-99.99,,,-99.99,,2013-01-16 14:42:00,
2013-01-16 07:53:00,16.0,16.0,-100.00,North,-999,-999.0,-999.0,99,-99.99,,,-99.99,,2013-01-16 14:53:00,
2013-01-16 08:03:00,18.0,17.0,-100.00,North,-999,-999.0,-999.0,95,-99.99,,,-99.99,,2013-01-16 15:03:00,
2013-01-16 08:12:00,20.0,16.0,-100.00,North,-999,-999.0,-999.0,85,-99.99,,,-99.99,,2013-01-16 15:12:00,
2013-01-16 08:22:00,20.0,16.0,-100.00,North,-999,-999.0,-999.0,85,-99.99,,,-99.99,,2013-01-16 15:22:00,
2013-01-16 08:32:00,20.0,16.0,-100.00,North,-999,-999.0,-999.0,85,-99.99,,,-99.99,,2013-01-16 15:32:00,
2013-01-16 08:43:00,22.0,14.0,-100.00,North,-999,-999.0,-999.0,70,-99.99,,,-99.99,,2013-01-16 15:43:00,
2013-01-16 08:53:00,22.0,14.0,-100.00,North,-999,-999.0,-999.0,70,-99.99,,,-99.99,,2013-01-16 15:53:00,
2013-01-16 09:03:00,22.0,14.0,-100.00,North,-999,-999.0,-999.0,70,-99.99,,,-99.99,,2013-01-16 16:03:00,
2013-01-16 09:12:00,24.0,13.0,-100.00,North,-999,-999.0,-999.0,62,-99.99,,,-99.99,,2013-01-16 16:12:00,
2013-01-16 09:22:00,24.0,13.0,-100.00,North,-999,-999.0,-999.0,62,-99.99,,,-99.99,,2013-01-16 16:22:00,
2013-01-16 09:32:00,24.0,13.0,-100.00,North,-999,-999.0,-999.0,62,-99.99,,,-99.99,,2013-01-16 16:32:00,
2013-01-16 09:42:00,22.0,14.0,-100.00,North,-999,-999.0,-999.0,71,-99.99,,,-99.99,,2013-01-16 16:42:00,
2013-01-16 09:53:00,22.0,14.0,-100.00,North,-999,-999.0,-999.0,71,-99.99,,,-99.99,,2013-01-16 16:53:00,
2013-01-16 10:02:00,22.0,14.0,-100.00,North,-999,-999.0,-999.0,71,-99.99,,,-99.99,,2013-01-16 17:02:00,
2013-01-16 10:12:00,21.0,17.0,-100.00,North,-999,-999.0,-999.0,85,-99.99,,,-99.99,,2013-01-16 17:12:00,
2013-01-16 10:22:00,21.0,17.0,-100.00,North,-999,-999.0,-999.0,85,-99.99,,,-99.99,,2013-01-16 17:22:00,
2013-01-16 10:33:00,21.0,17.0,-100.00,North,-999,-999.0,-999.0,85,-99.99,,,-99.99,,2013-01-16 17:33:00,
2013-01-16 10:43:00,28.0,16.0,-100.00,North,-999,-999.0,-999.0,61,-99.99,,,-99.99,,2013-01-16 17:43:00,
2013-01-16 10:53:00,28.0,16.0,-100.00,North,-999,-999.0,-999.0,61,-99.99,,,-99.99,,2013-01-16 17:53:00,
2013-01-16 11:02:00,26.0,19.0,-100.00,North,-999,-999.0,-999.0,76,-99.99,,,-99.99,,2013-01-16 18:02:00,
2013-01-16 11:12:00,28.0,18.0,-100.00,North,-999,-999.0,-999.0,64,-99.99,,,-99.99,,2013-01-16 18:12:00,
2013-01-16 11:22:00,28.0,18.0,-100.00,North,-999,-999.0,-999.0,64,-99.99,,,-99.99,,2013-01-16 18:22:00,
2013-01-16 11:33:00,28.0,18.0,-100.00,North,-999,-999.0,-999.0,64,-99.99,,,-99.99,,2013-01-16 18:33:00,
2013-01-16 11:42:00,32.0,14.0,-100.00,North,-999,-999.0,-999.0,47,-99.99,,,-99.99,,2013-01-16 18:42:00,
2013-01-16 11:53:00,32.0,14.0,-100.00,North,-999,-999.0,-999.0,47,-99.99,,,-99.99,,2013-01-16 18:53:00,
2013-01-16 12:02:00,33.0,14.0,-100.00,North,-999,-999.0,-999.0,44,-99.99,,,-99.99,,2013-01-16 19:02:00,
2013-01-16 12:12:00,34.0,12.0,-100.00,North,-999,-999.0,-999.0,40,-99.99,,,-99.99,,2013-01-16 19:12:00,
2013-01-16 12:22:00,34.0,12.0,-100.00,North,-999,-999.0,-999.0,40,-99.99,,,-99.99,,2013-01-16 19:22:00,
2013-01-16 12:32:00,34.0,12.0,-100.00,North,-999,-999.0,-999.0,40,-99.99,,,-99.99,,2013-01-16 19:32:00,
2013-01-16 12:42:00,35.0,12.0,-100.00,North,-999,-999.0,-999.0,38,-99.99,,,-99.99,,2013-01-16 19:42:00,
2013-01-16 12:53:00,35.0,12.0,-100.00,North,-999,-999.0,-999.0,38,-99.99,,,-99.99,,2013-01-16 19:53:00,
2013-01-16 13:03:00,35.0,12.0,-100.00,North,-999,-999.0,-999.0,37,-99.99,,,-99.99,,2013-01-16 20:03:00,
2013-01-16 13:12:00,35.0,12.0,-100.00,North,-999,-999.0,-999.0,37,-99.99,,,-99.99,,2013-01-16 20:12:00,
2013-01-16 13:42:00,35.0,12.0,-100.00,North,-999,-999.0,-999.0,36,-99.99,,,-99.99,,2013-01-16 20:42:00,
2013-01-16 13:53:00,35.0,12.0,-100.00,North,-999,-999.0,-999.0,36,-99.99,,,-99.99,,2013-01-16 20:53:00,
2013-01-16 14:02:00,35.0,11.0,-100.00,North,-999,-999.0,-999.0,36,-99.99,,,-99.99,,2013-01-16 21:02:00,
2013-01-16 14:12:00,36.0,12.0,-100.00,North,-999,-999.0,-999.0,36,-99.99,,,-99.99,,2013-01-16 21:12:00,
2013-01-16 14:22:00,36.0,12.0,-100.00,North,-999,-999.0,-999.0,36,-99.99,,,-99.99,,2013-01-16 21:22:00,
2013-01-16 14:42:00,34.0,11.0,-100.00,North,-999,-999.0,-999.0,37,-99.99,,,-99.99,,2013-01-16 21:42:00,
2013-01-16 14:53:00,34.0,11.0,-100.00,North,-999,-999.0,-999.0,37,-99.99,,,-99.99,,2013-01-16 21:53:00,
2013-01-16 15:02:00,34.0,12.0,-100.00,North,-999,-999.0,-999.0,39,-99.99,,,-99.99,,2013-01-16 22:02:00,
2013-01-16 15:12:00,35.0,13.0,-100.00,North,-999,-999.0,-999.0,39,-99.99,,,-99.99,,2013-01-16 22:12:00,
2013-01-16 15:22:00,35.0,13.0,-100.00,North,-999,-999.0,-999.0,39,-99.99,,,-99.99,,2013-01-16 22:22:00,
2013-01-16 15:32:00,35.0,13.0,-100.00,North,-999,-999.0,-999.0,39,-99.99,,,-99.99,,2013-01-16 22:32:00,
2013-01-16 15:43:00,35.0,13.0,-100.00,North,-999,-999.0,-999.0,40,-99.99,,,-99.99,,2013-01-16 22:43:00,
2013-01-16 15:53:00,35.0,13.0,-100.00,North,-999,-999.0,-999.0,40,-99.99,,,-99.99,,2013-01-16 22:53:00,
2013-01-16 16:02:00,36.0,11.0,-100.00,North,-999,-999.0,-999.0,35,-99.99,,,-99.99,,2013-01-16 23:02:00,
2013-01-16 16:12:00,34.0,11.0,-100.00,North,-999,-999.0,-999.0,37,-99.99,,,-99.99,,2013-01-16 23:12:00,
2013-01-16 16:22:00,34.0,11.0,-100.00,North,-999,-999.0,-999.0,37,-99.99,,,-99.99,,2013-01-16 23:22:00,
2013-01-16 16:32:00,34.0,11.0,-100.00,North,-999,-999.0,-999.0,37,-99.99,,,-99.99,,2013-01-16 23:32:00,
2013-01-16 16:42:00,29.0,11.0,-100.00,North,-999,-999.0,-999.0,44,-99.99,,,-99.99,,2013-01-16 23:42:00,
2013-01-16 16:53:00,29.0,11.0,-100.00,North,-999,-999.0,-999.0,44,-99.99,,,-99.99,,2013-01-16 23:53:00,
2013-01-16 17:02:00,29.0,10.0,-100.00,North,-999,-999.0,-999.0,44,-99.99,,,-99.99,,2013-01-17 00:02:00,
2013-01-16 17:12:00,28.0,11.0,-100.00,North,-999,-999.0,-999.0,47,-99.99,,,-99.99,,2013-01-17 00:12:00,
2013-01-16 17:22:00,28.0,11.0,-100.00,North,-999,-999.0,-999.0,47,-99.99,,,-99.99,,2013-01-17 00:22:00,
2013-01-16 17:32:00,28.0,11.0,-100.00,North,-999,-999.0,-999.0,47,-99.99,,,-99.99,,2013-01-17 00:32:00,
2013-01-16 17:42:00,25.0,14.0,-100.00,North,-999,-999.0,-999.0,62,-99.99,,,-99.99,,2013-01-17 00:42:00,
2013-01-16 17:52:00,25.0,14.0,-100.00,North,-999,-999.0,-999.0,62,-99.99,,,-99.99,,2013-01-17 00:52:00,
2013-01-16 18:02:00,23.0,17.0,-100.00,North,-999,-999.0,-999.0,76,-99.99,,,-99.99,,2013-01-17 01:02:00,
2013-01-16 18:12:00,22.0,18.0,-100.00,North,-999,-999.0,-999.0,84,-99.99,,,-99.99,,2013-01-17 01:12:00,
2013-01-16 18:22:00,22.0,18.0,-100.00,North,-999,-999.0,-999.0,84,-99.99,,,-99.99,,2013-01-17 01:22:00,
2013-01-16 18:42:00,22.0,17.0,-100.00,North,-999,-999.0,-999.0,82,-99.99,,,-99.99,,2013-01-17 01:42:00,
2013-01-16 19:02:00,24.0,15.0,-100.00,North,-999,-999.0,-999.0,66,-99.99,,,-99.99,,2013-01-17 02:02:00,
2013-01-16 19:12:00,23.0,17.0,-100.00,North,-999,-999.0,-999.0,77,-99.99,,,-99.99,,2013-01-17 02:12:00,
2013-01-16 19:22:00,23.0,17.0,-100.00,North,-999,-999.0,-999.0,77,-99.99,,,-99.99,,2013-01-17 02:22:00,
2013-01-16 20:02:00,21.0,17.0,-100.00,North,-999,-999.0,-999.0,83,-99.99,,,-99.99,,2013-01-17 03:02:00,
2013-01-16 20:12:00,21.0,16.0,-100.00,North,-999,-999.0,-999.0,83,-99.99,,,-99.99,,2013-01-17 03:12:00,
2013-01-16 20:22:00,21.0,16.0,-100.00,North,-999,-999.0,-999.0,83,-99.99,,,-99.99,,2013-01-17 03:22:00,
2013-01-16 20:42:00,21.0,16.0,-100.00,North,-999,-999.0,-999.0,80,-99.99,,,-99.99,,2013-01-17 03:42:00,
2013-01-16 20:52:00,21.0,16.0,-100.00,North,-999,-999.0,-999.0,80,-99.99,,,-99.99,,2013-01-17 03:52:00,
2013-01-16 21:02:00,21.0,16.0,-100.00,North,-999,-999.0,-999.0,80,-99.99,,,-99.99,,2013-01-17 04:02:00,
2013-01-16 21:12:00,21.0,16.0,-100.00,North,-999,-999.0,-999.0,81,-99.99,,,-99.99,,2013-01-17 04:12:00,
2013-01-16 21:22:00,21.0,16.0,-100.00,North,-999,-999.0,-999.0,81,-99.99,,,-99.99,,2013-01-17 04:22:00,
2013-01-16 21:42:00,22.0,16.0,-100.00,North,-999,-999.0,-999.0,75,-99.99,,,-99.99,,2013-01-17 04:42:00,
2013-01-16 21:52:00,22.0,16.0,-100.00,North,-999,-999.0,-999.0,75,-99.99,,,-99.99,,2013-01-17 04:52:00,
2013-01-16 22:04:00,23.0,14.0,-100.00,North,-999,-999.0,-999.0,68,-99.99,,,-99.99,,2013-01-17 05:04:00,
2013-01-16 22:12:00,22.0,16.0,-100.00,North,-999,-999.0,-999.0,78,-99.99,,,-99.99,,2013-01-17 05:12:00,
2013-01-16 22:22:00,22.0,16.0,-100.00,North,-999,-999.0,-999.0,78,-99.99,,,-99.99,,2013-01-17 05:22:00,
2013-01-16 22:42:00,22.0,16.0,-100.00,North,-999,-999.0,-999.0,78,-99.99,,,-99.99,,2013-01-17 05:42:00,
2013-01-16 22:53:00,22.0,16.0,-100.00,North,-999,-999.0,-999.0,78,-99.99,,,-99.99,,2013-01-17 05:53:00,
2013-01-16 23:02:00,21.0,16.0,-100.00,North,-999,-999.0,-999.0,78,-99.99,,,-99.99,,2013-01-17 06:02:00,
2013-01-16 23:11:00,21.0,16.0,-100.00,North,-999,-999.0,-999.0,79,-99.99,,,-99.99,,2013-01-17 06:11:00,
2013-01-16 23:22:00,21.0,16.0,-100.00,North,-999,-999.0,-999.0,79,-99.99,,,-99.99,,2013-01-17 06:22:00,
2013-01-16 23:42:00,22.0,14.0,-100.00,North,-999,-999.0,-999.0,71,-99.99,,,-99.99,,2013-01-17 06:42:00,
2013-01-16 23:52:00,22.0,14.0,-100.00,North,-999,-999.0,-999.0,71,-99.99,,,-99.99,,2013-01-17 06:52:00,